Schedule Details


Flight Number: CTN375
Departure: El Prat (LEBL) at 18:20
Arrival: Franjo Tudman (LDZA) at 20:35
Route: DALIN?UN870?ADITA?UZ192?STP?UM985?NOSTA?M985?ABN?Z388?CHI?M167?ROTAR?DCT?ABLAT?DCT?ARGOM

Weather Information
LEBL 112230Z 02003KT 9999 FEW008 13/09 Q1019 NOSIG
LDZA 112230Z 25014KT CAVOK 19/10 Q1007 BECMG 24008KT
Schedule Frequency

Route Map